South Lyon, MI

4:35 AM EDT on July 22, 2017 (GMT -0400)
Eagle Pointe | | Change Station

Elev 968 ft 42.46 °N, 83.64 °W | Updated 18 days ago

Partly Cloudy
Partly Cloudy
65.4 °F
Feels Like 65.4 °F
N
2.2
Wind Variable Wind from East
Gusts 4.5 mph

Today
High -- | Low -- °F
--% Chance of Precip.
Yesterday
High -- | Low -- °F
Precip. -- in
Pressure 29.85 in
Visibility 10.0 miles
Clouds Few 10000 ft
Dew Point 56.1 °F
Humidity 72%
Rainfall in
Snow Depth Not available.
6:17 AM 9:04 PM
Waning Crescent, 2% visible
METAR KYIP 220753Z 18009KT 10SM FEW100 25/21 A2988 RMK AO2 SLP108 T02500206
Pressure 29.85 in
Visibility 10.0 miles
Clouds Few 10000 ft
Dew Point 56.1 °F
Humidity 72%
Rainfall in
Snow Depth Not available.
6:17 AM 9:04 PM
Waning Crescent, 2% visible
METAR KYIP 220753Z 18009KT 10SM FEW100 25/21 A2988 RMK AO2 SLP108 T02500206

Get Severe Weather Alerts

Thanks for signing up!

Be on the lookout for a verification email in your inbox.

You'll start receiving the daily forecast at 6 AM.

×

10-Day Weather Forecast

Almanac

Astronomy

Jul. 22, 2017 Rise Set
Actual Time
Civil Twilight
Nautical Twilight
Astronomical Twilight
Moon
Length of Visible Light
Length of Day
Tomorrow will be .
, % of the Moon is Illuminated

Today's Extremes

State Highs State Lows

Community

WunderPhotos

Category 6

Welcome to Category 6. This is the collective home for Weather Underground's featured writeups by Dr. Jeff Masters (right), Bob Henson (left), Chris Burt, and other regular contributors.

Nearby

Air Quality

  Air Quality AQ Index Pollutant
Not available.

Snow Depth

Station Depth Elevation

Earthquake Activity

City Distance Mag. Time & Date
Minimum magnitude displayed is 2.5.

Coastal Water Temperatures

Place Temperature

Stations

Nearby Weather Stations

Station Location Temp. Windchill Dew Point Humidity Wind Precip. Elev Updated Type
                   

Watches & Warnings

There are currently no watches in effect.